Time;durP1;ratioP1;P1;durP2;ratioP2;P2;SDS_P1;SDS_P2;PMS_P1;PMS_P2;Temp;Humidity;BMP_temperature;BMP_pressure;BME280_temperature;BME280_humidity;BME280_pressure;Samples;Min_cycle;Max_cycle;Signal;HPM_P1;HPM_P2
2024/01/29 00:01:38;;;;;;;8.90;4.80;;;;;;;-2.35;100.00;102077.35;109178;1253;59562;-55
2024/01/29 00:04:06;;;;;;;9.90;5.10;;;;;;;-2.41;100.00;102076.04;109153;1253;60127;-56
2024/01/29 00:06:33;;;;;;;14.00;6.10;;;;;;;-2.48;100.00;102074.74;109285;1253;74689;-55
2024/01/29 00:09:01;;;;;;;14.20;6.10;;;;;;;-2.54;100.00;102077.88;109187;1254;65793;-55
2024/01/29 00:11:29;;;;;;;12.10;6.80;;;;;;;-2.58;100.00;102081.41;109338;1253;72787;-57
2024/01/29 00:13:57;;;;;;;13.00;6.40;;;;;;;-2.58;100.00;102087.02;109155;1253;60396;-55
2024/01/29 00:16:24;;;;;;;9.60;5.50;;;;;;;-2.59;100.00;102086.23;109148;1253;58890;-57
2024/01/29 00:18:52;;;;;;;10.80;6.30;;;;;;;-2.62;100.00;102090.91;109316;1253;73451;-56
2024/01/29 00:21:20;;;;;;;9.70;5.40;;;;;;;-2.64;100.00;102093.04;109196;1253;67231;-56
2024/01/29 00:23:47;;;;;;;10.00;6.00;;;;;;;-2.67;100.00;102091.61;109169;1253;72716;-56
2024/01/29 00:26:15;;;;;;;8.00;5.10;;;;;;;-2.73;100.00;102092.13;109090;1253;59362;-54
2024/01/29 00:28:43;;;;;;;9.40;5.20;;;;;;;-2.78;100.00;102089.59;109158;1253;60145;-54
2024/01/29 00:31:10;;;;;;;9.00;4.90;;;;;;;-2.83;100.00;102092.63;109169;1253;73806;-55
2024/01/29 00:33:38;;;;;;;10.00;5.50;;;;;;;-2.87;100.00;102094.48;109207;1253;65643;-55
2024/01/29 00:36:06;;;;;;;9.00;5.10;;;;;;;-2.91;100.00;102097.19;109115;1253;72778;-62
2024/01/29 00:38:33;;;;;;;8.00;4.80;;;;;;;-2.96;100.00;102099.20;109122;1253;60940;-55
2024/01/29 00:41:01;;;;;;;9.70;5.10;;;;;;;-2.99;100.00;102103.55;109124;1253;59058;-55
2024/01/29 00:43:29;;;;;;;10.50;5.90;;;;;;;-3.01;100.00;102104.11;109169;1253;73906;-55
2024/01/29 00:45:56;;;;;;;10.40;5.40;;;;;;;-3.03;100.00;102107.77;109211;1253;65747;-56
2024/01/29 00:48:25;;;;;;;10.40;5.80;;;;;;;-3.06;100.00;102107.52;109091;1253;73356;-55
2024/01/29 00:50:52;;;;;;;11.30;5.50;;;;;;;-3.08;100.00;102115.08;109112;1254;59562;-55
2024/01/29 00:53:20;;;;;;;8.50;5.00;;;;;;;-3.08;100.00;102117.48;109153;1253;59979;-56
2024/01/29 00:55:48;;;;;;;12.30;6.30;;;;;;;-3.07;100.00;102116.40;109182;1253;72680;-55
2024/01/29 00:58:15;;;;;;;11.60;6.10;;;;;;;-3.07;100.00;102118.79;109096;1253;66115;-56
2024/01/29 01:00:43;;;;;;;11.60;5.80;;;;;;;-3.09;100.00;102120.04;109305;1253;73556;-56
2024/01/29 01:03:10;;;;;;;10.80;5.80;;;;;;;-3.12;100.00;102124.04;109182;1256;59844;-55
2024/01/29 01:05:38;;;;;;;10.00;4.90;;;;;;;-3.13;100.00;102123.42;109168;1253;59262;-55
2024/01/29 01:08:06;;;;;;;8.40;5.10;;;;;;;-3.16;100.00;102127.08;109225;1253;74745;-55
2024/01/29 01:10:33;;;;;;;9.20;4.90;;;;;;;-3.16;100.00;102124.70;109341;1253;65670;-62
2024/01/29 01:13:01;;;;;;;12.70;6.10;;;;;;;-3.23;100.00;102125.24;109196;1253;72417;-55
2024/01/29 01:15:29;;;;;;;10.20;6.30;;;;;;;-3.28;100.00;102121.84;109084;1253;61263;-56
2024/01/29 01:17:56;;;;;;;9.50;5.60;;;;;;;-3.31;100.00;102123.45;109112;1253;59001;-55
2024/01/29 01:20:24;;;;;;;11.30;6.50;;;;;;;-3.34;100.00;102122.19;109154;1253;73812;-55
2024/01/29 01:22:52;;;;;;;11.00;6.30;;;;;;;-3.38;100.00;102125.54;109174;1259;66190;-56
2024/01/29 01:25:20;;;;;;;10.00;5.20;;;;;;;-3.40;100.00;102129.01;109142;1253;72692;-55
2024/01/29 01:27:47;;;;;;;13.00;6.80;;;;;;;-3.44;100.00;102133.03;109156;1253;59610;-55
2024/01/29 01:30:15;;;;;;;13.20;6.70;;;;;;;-3.47;100.00;102134.98;109331;1253;59601;-55
2024/01/29 01:32:43;;;;;;;11.90;6.10;;;;;;;-3.48;100.00;102138.77;109148;1253;74816;-55
2024/01/29 01:35:10;;;;;;;11.30;5.70;;;;;;;-3.49;100.00;102136.77;109119;1253;67175;-55
2024/01/29 01:37:38;;;;;;;8.90;4.90;;;;;;;-3.49;100.00;102141.67;109151;1253;71683;-55
2024/01/29 01:40:06;;;;;;;9.20;5.10;;;;;;;-3.46;100.00;102138.70;109163;1254;61091;-55
2024/01/29 01:42:34;;;;;;;9.90;5.80;;;;;;;-3.45;100.00;102138.50;109116;1253;58915;-55
2024/01/29 01:45:02;;;;;;;9.80;5.40;;;;;;;-3.46;100.00;102137.67;109185;1253;74634;-55
2024/01/29 01:47:29;;;;;;;10.70;5.50;;;;;;;-3.48;100.00;102142.34;109247;1253;65711;-56
2024/01/29 01:49:57;;;;;;;10.00;4.70;;;;;;;-3.48;100.00;102147.79;109121;1253;71456;-55
2024/01/29 01:52:24;;;;;;;10.80;5.30;;;;;;;-3.47;100.00;102152.17;109108;1253;60121;-55
2024/01/29 01:54:53;;;;;;;10.50;6.30;;;;;;;-3.47;100.00;102153.50;109100;1253;58880;-56
2024/01/29 01:57:21;;;;;;;12.80;6.00;;;;;;;-3.48;100.00;102154.73;109357;1253;72965;-55
2024/01/29 01:59:48;;;;;;;8.90;4.80;;;;;;;-3.47;100.00;102155.23;109185;1253;66864;-55
2024/01/29 02:02:16;;;;;;;12.60;5.60;;;;;;;-3.48;100.00;102157.61;109108;1253;72734;-55
2024/01/29 02:04:44;;;;;;;11.10;6.10;;;;;;;-3.48;100.00;102160.53;109096;1253;59179;-55
2024/01/29 02:07:11;;;;;;;13.40;5.70;;;;;;;-3.50;100.00;102156.15;109141;1253;58973;-56
2024/01/29 02:09:39;;;;;;;12.10;6.70;;;;;;;-3.52;100.00;102162.33;109056;1253;74736;-55
2024/01/29 02:12:10;;;;;;;10.90;5.60;;;;;;;-3.54;100.00;102160.52;109328;1253;66250;-55
2024/01/29 02:14:37;;;;;;;10.10;5.50;;;;;;;-3.55;100.00;102162.95;109178;1255;71747;-55
2024/01/29 02:17:05;;;;;;;10.90;6.10;;;;;;;-3.57;100.00;102157.73;109061;1253;59906;-62
2024/01/29 02:19:33;;;;;;;10.30;5.70;;;;;;;-3.59;100.00;102158.65;109142;1260;58974;-56
2024/01/29 02:22:00;;;;;;;11.20;6.40;;;;;;;-3.61;100.00;102164.81;109225;1253;74738;-56
2024/01/29 02:24:28;;;;;;;10.20;6.10;;;;;;;-3.62;100.00;102164.68;109134;1253;65655;-56
2024/01/29 02:26:56;;;;;;;10.30;5.30;;;;;;;-3.64;100.00;102167.95;109343;1253;72794;-54
2024/01/29 02:29:24;;;;;;;13.80;6.20;;;;;;;-3.68;100.00;102170.60;109138;1253;60969;-62
2024/01/29 02:31:51;;;;;;;10.50;5.50;;;;;;;-3.71;100.00;102172.77;109137;1259;58817;-56
2024/01/29 02:34:19;;;;;;;12.00;5.60;;;;;;;-3.73;100.00;102177.55;109106;1253;72435;-55
2024/01/29 02:36:47;;;;;;;10.70;5.10;;;;;;;-3.73;100.00;102177.39;109194;1253;65567;-54
2024/01/29 02:39:14;;;;;;;10.00;4.70;;;;;;;-3.72;100.00;102180.91;109192;1253;72714;-54
2024/01/29 02:41:43;;;;;;;10.10;4.60;;;;;;;-3.72;100.00;102180.75;109163;1253;60520;-55
2024/01/29 02:44:10;;;;;;;9.70;5.50;;;;;;;-3.75;100.00;102183.41;109124;1254;60141;-56
2024/01/29 02:46:41;;;;;;;10.50;4.90;;;;;;;-3.77;100.00;102185.64;109228;1253;74716;-55
2024/01/29 02:49:08;;;;;;;10.50;5.30;;;;;;;-3.75;100.00;102186.79;109131;1253;66276;-57
2024/01/29 02:51:36;;;;;;;9.30;4.60;;;;;;;-3.72;100.00;102186.02;109072;1254;72773;-58
2024/01/29 02:54:04;;;;;;;8.60;4.70;;;;;;;-3.70;100.00;102187.16;109159;1253;60158;-55
2024/01/29 02:56:32;;;;;;;9.00;5.10;;;;;;;-3.68;100.00;102188.11;109105;1253;59129;-55
2024/01/29 02:58:59;;;;;;;9.60;5.20;;;;;;;-3.67;100.00;102189.46;109138;1253;72843;-55
2024/01/29 03:01:27;;;;;;;8.50;5.00;;;;;;;-3.68;100.00;102192.89;109138;1253;67438;-60
2024/01/29 03:03:55;;;;;;;9.00;4.60;;;;;;;-3.69;100.00;102191.89;109151;1254;71383;-55
2024/01/29 03:06:23;;;;;;;9.40;5.40;;;;;;;-3.70;100.00;102198.55;109190;1253;59152;-54
2024/01/29 03:08:51;;;;;;;9.50;5.70;;;;;;;-3.71;100.00;102195.69;109239;1253;58859;-55
2024/01/29 03:11:19;;;;;;;9.10;5.50;;;;;;;-3.72;100.00;102200.45;109132;1253;73440;-55
2024/01/29 03:13:47;;;;;;;10.30;6.00;;;;;;;-3.72;100.00;102203.19;109154;1253;66988;-56
2024/01/29 03:16:15;;;;;;;12.60;5.10;;;;;;;-3.72;100.00;102205.55;109108;1253;71482;-54
2024/01/29 03:18:42;;;;;;;9.50;5.00;;;;;;;-3.72;100.00;102209.80;109143;1254;59647;-55
2024/01/29 03:21:10;;;;;;;8.30;4.30;;;;;;;-3.71;100.00;102211.32;109142;1253;59336;-56
2024/01/29 03:23:38;;;;;;;9.20;4.90;;;;;;;-3.71;100.00;102209.46;109140;1254;73238;-55
2024/01/29 03:26:05;;;;;;;9.30;4.90;;;;;;;-3.74;100.00;102211.39;109118;1253;65556;-55
2024/01/29 03:28:33;;;;;;;8.20;4.50;;;;;;;-3.74;100.00;102214.45;109129;1254;72822;-54
2024/01/29 03:31:00;;;;;;;8.00;4.30;;;;;;;-3.73;100.00;102217.50;109126;1254;58981;-55
2024/01/29 03:33:28;;;;;;;10.90;5.40;;;;;;;-3.72;100.00;102217.98;109150;1254;59037;-55
2024/01/29 03:35:56;;;;;;;9.10;4.70;;;;;;;-3.69;100.00;102218.23;109147;1254;73437;-54
2024/01/29 03:38:24;;;;;;;9.50;5.20;;;;;;;-3.66;100.00;102221.87;109119;1260;67653;-55
2024/01/29 03:40:51;;;;;;;9.20;4.60;;;;;;;-3.60;100.00;102226.98;109188;1253;71463;-55
2024/01/29 03:43:19;;;;;;;9.30;4.50;;;;;;;-3.54;100.00;102230.20;109160;1256;59101;-54
2024/01/29 03:45:47;;;;;;;8.00;4.10;;;;;;;-3.48;100.00;102228.15;109125;1253;59589;-54
2024/01/29 03:48:15;;;;;;;9.20;5.30;;;;;;;-3.42;100.00;102231.56;109263;1253;73439;-55
2024/01/29 03:50:43;;;;;;;10.00;5.20;;;;;;;-3.38;100.00;102234.49;109125;1254;66688;-55
2024/01/29 03:53:11;;;;;;;10.50;5.20;;;;;;;-3.33;100.00;102234.70;109143;1254;72666;-55
2024/01/29 03:55:38;;;;;;;8.60;4.70;;;;;;;-3.28;100.00;102234.72;109131;1254;59010;-54
2024/01/29 03:58:06;;;;;;;8.30;4.50;;;;;;;-3.23;100.00;102240.34;109169;1253;59012;-54
2024/01/29 04:00:34;;;;;;;8.00;4.40;;;;;;;-3.18;100.00;102240.88;109072;1254;73431;-55
2024/01/29 04:03:03;;;;;;;9.20;4.70;;;;;;;-3.12;100.00;102252.45;109165;1253;67367;-55
2024/01/29 04:05:30;;;;;;;8.60;4.60;;;;;;;-3.07;100.00;102250.06;109341;1254;71363;-54
2024/01/29 04:07:59;;;;;;;10.10;4.80;;;;;;;-3.03;100.00;102247.05;109111;1254;59017;-56
2024/01/29 04:10:27;;;;;;;10.40;5.50;;;;;;;-2.98;100.00;102251.85;109110;1254;58882;-62
2024/01/29 04:12:54;;;;;;;9.30;5.10;;;;;;;-2.95;100.00;102250.05;109178;1254;74685;-54
2024/01/29 04:15:22;;;;;;;10.70;5.60;;;;;;;-2.93;100.00;102255.42;109319;1253;65617;-55
2024/01/29 04:17:50;;;;;;;9.50;5.10;;;;;;;-2.90;100.00;102253.99;109118;1254;72658;-55
2024/01/29 04:20:17;;;;;;;10.40;5.10;;;;;;;-2.87;100.00;102260.89;109202;1254;61504;-55
2024/01/29 04:22:45;;;;;;;9.30;5.10;;;;;;;-2.85;100.00;102260.81;109102;1253;60036;-55
2024/01/29 04:25:13;;;;;;;9.80;5.50;;;;;;;-2.83;100.00;102266.87;109176;1254;74715;-55
2024/01/29 04:27:41;;;;;;;10.50;5.20;;;;;;;-2.80;100.00;102271.22;109315;1254;66040;-55
2024/01/29 04:30:09;;;;;;;11.40;6.40;;;;;;;-2.79;100.00;102269.27;109132;1257;72746;-56
2024/01/29 04:32:37;;;;;;;9.90;5.60;;;;;;;-2.77;100.00;102271.59;109139;1254;59704;-61
2024/01/29 04:35:05;;;;;;;10.50;6.20;;;;;;;-2.74;100.00;102268.98;109121;1254;58929;-55
2024/01/29 04:37:32;;;;;;;13.20;6.70;;;;;;;-2.71;100.00;102277.37;109165;1253;74791;-56
2024/01/29 04:40:00;;;;;;;11.60;5.80;;;;;;;-2.68;100.00;102273.91;109163;1253;65686;-55
2024/01/29 04:42:28;;;;;;;12.60;6.50;;;;;;;-2.67;100.00;102276.23;109128;1254;72721;-55
2024/01/29 04:44:56;;;;;;;10.50;6.10;;;;;;;-2.65;100.00;102277.71;109106;1254;60998;-56
2024/01/29 04:47:23;;;;;;;11.50;6.80;;;;;;;-2.63;100.00;102279.54;109166;1254;60124;-56
2024/01/29 04:49:51;;;;;;;11.40;6.80;;;;;;;-2.60;100.00;102280.45;109185;1254;73479;-55
2024/01/29 04:52:19;;;;;;;10.60;5.70;;;;;;;-2.58;100.00;102286.48;109163;1254;67409;-55
2024/01/29 04:54:46;;;;;;;12.70;6.30;;;;;;;-2.56;100.00;102288.48;109159;1254;72993;-62
2024/01/29 04:57:14;;;;;;;11.20;6.50;;;;;;;-2.54;100.00;102292.52;109132;1256;59672;-55
2024/01/29 04:59:42;;;;;;;9.60;5.40;;;;;;;-2.49;100.00;102288.94;109177;1253;60116;-56
2024/01/29 05:02:09;;;;;;;10.90;6.60;;;;;;;-2.46;100.00;102291.55;109184;1253;74733;-55
2024/01/29 05:04:37;;;;;;;16.60;8.90;;;;;;;-2.43;100.00;102295.40;109149;1254;67047;-58
2024/01/29 05:07:04;;;;;;;20.70;13.70;;;;;;;-2.41;100.00;102299.59;109127;1256;72789;-60
2024/01/29 05:09:32;;;;;;;15.80;9.20;;;;;;;-2.38;100.00;102304.44;109128;1254;60620;-55
2024/01/29 05:12:00;;;;;;;16.10;11.70;;;;;;;-2.34;100.00;102307.19;109154;1259;58971;-55
2024/01/29 05:14:28;;;;;;;12.80;6.50;;;;;;;-2.30;100.00;102305.89;109322;1253;74770;-55
2024/01/29 05:16:56;;;;;;;9.40;5.70;;;;;;;-2.30;100.00;102314.04;109191;1254;67440;-54
2024/01/29 05:19:23;;;;;;;15.00;9.10;;;;;;;-2.29;100.00;102311.13;109177;1254;70435;-55
2024/01/29 05:21:51;;;;;;;12.40;6.90;;;;;;;-2.28;100.00;102317.21;109233;1254;60011;-55
2024/01/29 05:24:19;;;;;;;12.50;5.90;;;;;;;-2.27;100.00;102313.10;109143;1254;59065;-55
2024/01/29 05:26:46;;;;;;;8.90;5.30;;;;;;;-2.25;100.00;102320.36;109189;1253;73444;-54
2024/01/29 05:29:14;;;;;;;11.30;5.80;;;;;;;-2.23;100.00;102319.77;109210;1253;65908;-56
2024/01/29 05:31:42;;;;;;;10.30;5.30;;;;;;;-2.23;100.00;102324.89;109164;1254;71476;-55
2024/01/29 05:34:09;;;;;;;12.20;6.10;;;;;;;-2.24;100.00;102325.08;109172;1253;60903;-55
2024/01/29 05:36:37;;;;;;;12.20;6.20;;;;;;;-2.23;100.00;102338.34;109227;1254;60084;-55
2024/01/29 05:39:05;;;;;;;8.80;5.30;;;;;;;-2.22;100.00;102338.64;109296;1254;73463;-55
2024/01/29 05:41:32;;;;;;;10.10;5.90;;;;;;;-2.17;100.00;102343.08;109116;1255;67540;-54
2024/01/29 05:44:00;;;;;;;12.60;6.90;;;;;;;-2.13;100.00;102345.87;109243;1254;72742;-55
2024/01/29 05:46:28;;;;;;;15.80;7.90;;;;;;;-2.09;100.00;102353.23;109221;1254;59667;-54
2024/01/29 05:48:55;;;;;;;26.40;11.60;;;;;;;-2.04;100.00;102345.40;109330;1254;60070;-55
2024/01/29 05:51:24;;;;;;;13.10;7.10;;;;;;;-1.97;100.00;102349.77;109156;1254;74800;-54
2024/01/29 05:53:51;;;;;;;10.10;5.50;;;;;;;-1.90;100.00;102365.02;109358;1254;65613;-54
2024/01/29 05:56:19;;;;;;;21.20;11.90;;;;;;;-1.81;100.00;102349.71;109237;1254;71758;-55
2024/01/29 05:58:46;;;;;;;17.90;8.00;;;;;;;-1.72;100.00;102363.90;109154;1253;58974;-55
2024/01/29 06:01:14;;;;;;;17.40;7.80;;;;;;;-1.62;100.00;102368.17;109224;1254;60093;-55
2024/01/29 06:03:42;;;;;;;13.20;6.70;;;;;;;-1.56;100.00;102372.91;109097;1253;74365;-58
2024/01/29 06:06:09;;;;;;;12.10;6.20;;;;;;;-1.51;100.00;102370.36;109143;1253;67115;-56
2024/01/29 06:08:37;;;;;;;13.00;7.30;;;;;;;-1.47;100.00;102368.52;109133;1253;71443;-55
2024/01/29 06:11:05;;;;;;;14.50;9.00;;;;;;;-1.43;100.00;102375.53;109112;1254;58967;-56
2024/01/29 06:13:33;;;;;;;15.10;9.50;;;;;;;-1.40;100.00;102377.14;109260;1253;59169;-55
2024/01/29 06:16:01;;;;;;;13.30;8.60;;;;;;;-1.35;100.00;102381.23;109332;1253;75312;-55
2024/01/29 06:18:28;;;;;;;13.30;8.40;;;;;;;-1.27;100.00;102389.64;109206;1254;65975;-57
2024/01/29 06:20:57;;;;;;;11.70;7.10;;;;;;;-1.19;100.00;102380.33;109197;1253;71396;-57
2024/01/29 06:23:25;;;;;;;17.00;9.10;;;;;;;-1.10;100.00;102391.10;109176;1253;60238;-56
2024/01/29 06:25:53;;;;;;;13.00;7.80;;;;;;;-1.07;100.00;102390.80;109124;1254;59093;-58
2024/01/29 06:28:20;;;;;;;15.30;8.20;;;;;;;-1.02;100.00;102394.89;109161;1253;74024;-57
2024/01/29 06:30:48;;;;;;;12.80;7.80;;;;;;;-0.94;100.00;102408.45;109179;1253;66943;-56
2024/01/29 06:33:16;;;;;;;13.20;7.60;;;;;;;-0.86;100.00;102400.97;109274;1253;72568;-56
2024/01/29 06:35:43;;;;;;;10.30;6.40;;;;;;;-0.77;100.00;102413.08;109149;1253;59499;-58
2024/01/29 06:38:11;;;;;;;11.00;5.80;;;;;;;-0.68;100.00;102411.05;109112;1254;58909;-65
2024/01/29 06:40:39;;;;;;;12.60;5.90;;;;;;;-0.61;100.00;102410.45;109159;1253;74681;-57
2024/01/29 06:43:07;;;;;;;8.70;4.80;;;;;;;-0.53;100.00;102404.86;109207;1253;65807;-58
2024/01/29 06:45:35;;;;;;;9.10;5.10;;;;;;;-0.49;100.00;102411.34;109230;1253;72744;-58
2024/01/29 06:48:05;;;;;;;8.90;5.80;;;;;;;-0.45;100.00;102402.99;109282;1253;59049;-57
2024/01/29 06:50:33;;;;;;;11.70;5.30;;;;;;;-0.35;100.00;102415.74;109222;1254;59437;-58
2024/01/29 06:53:01;;;;;;;10.80;5.70;;;;;;;-0.27;100.00;102414.77;109223;1254;74703;-58
2024/01/29 06:55:29;;;;;;;23.30;11.90;;;;;;;-0.19;100.00;102416.70;109137;1253;66945;-58
2024/01/29 06:57:57;;;;;;;13.00;8.80;;;;;;;-0.14;100.00;102421.61;109149;1253;72695;-57
2024/01/29 07:00:24;;;;;;;13.90;7.90;;;;;;;-0.11;100.00;102418.74;109219;1253;58975;-61
2024/01/29 07:02:52;;;;;;;16.40;9.70;;;;;;;-0.08;100.00;102418.64;109143;1255;60052;-58
2024/01/29 07:05:20;;;;;;;20.20;12.70;;;;;;;-0.03;100.00;102425.61;109181;1253;74720;-58
2024/01/29 07:07:48;;;;;;;20.60;11.70;;;;;;;0.05;100.00;102422.05;109184;1253;69337;-58
2024/01/29 07:10:15;;;;;;;21.50;12.00;;;;;;;0.15;100.00;102429.50;109137;1253;74836;-58
2024/01/29 07:12:43;;;;;;;18.00;10.50;;;;;;;0.23;100.00;102425.23;109115;1253;62486;-60
2024/01/29 07:15:13;;;;;;;19.50;10.90;;;;;;;0.30;100.00;102428.23;109147;1253;61066;-59
2024/01/29 07:17:41;;;;;;;17.10;9.80;;;;;;;0.32;100.00;102423.67;109171;1253;75014;-60
2024/01/29 07:20:10;;;;;;;14.30;8.70;;;;;;;0.38;100.00;102428.05;109243;1253;66930;-60
2024/01/29 07:22:38;;;;;;;13.80;8.80;;;;;;;0.47;100.00;102428.89;109110;1255;71415;-60
2024/01/29 07:25:06;;;;;;;11.90;7.00;;;;;;;0.52;100.00;102436.04;109132;1253;60620;-59
2024/01/29 07:27:34;;;;;;;10.80;6.30;;;;;;;0.58;100.00;102436.80;109236;1253;60103;-59
2024/01/29 07:30:02;;;;;;;11.60;7.10;;;;;;;0.64;100.00;102438.59;109212;1253;72643;-59
2024/01/29 07:32:31;;;;;;;10.40;6.10;;;;;;;0.71;100.00;102437.61;109317;1253;65158;-61
2024/01/29 07:35:03;;;;;;;9.00;5.20;;;;;;;0.83;100.00;102442.58;109112;1253;73144;-60
2024/01/29 07:37:31;;;;;;;9.20;5.10;;;;;;;0.94;100.00;102439.20;109256;1253;60204;-62
2024/01/29 07:39:59;;;;;;;10.20;5.50;;;;;;;1.02;100.00;102440.20;109209;1253;59026;-61
2024/01/29 07:42:26;;;;;;;8.60;5.00;;;;;;;1.14;100.00;102436.92;109202;1252;74793;-60
2024/01/29 07:44:54;;;;;;;9.50;5.10;;;;;;;1.25;100.00;102441.57;109211;1253;66065;-61
2024/01/29 07:47:22;;;;;;;9.90;5.30;;;;;;;1.37;100.00;102440.53;109197;1253;72718;-61
2024/01/29 07:49:50;;;;;;;9.10;5.10;;;;;;;1.51;100.00;102443.80;109185;1253;60984;-62
2024/01/29 07:52:17;;;;;;;11.90;5.00;;;;;;;1.61;100.00;102439.76;109183;1253;59092;-62
2024/01/29 07:54:45;;;;;;;9.40;5.10;;;;;;;1.73;100.00;102441.09;109160;1253;72326;-66
2024/01/29 07:57:13;;;;;;;8.20;4.90;;;;;;;1.91;100.00;102444.70;109197;1254;67083;-61
2024/01/29 07:59:41;;;;;;;9.50;5.50;;;;;;;2.10;100.00;102447.88;109191;1253;71820;-61
2024/01/29 08:02:09;;;;;;;8.50;5.20;;;;;;;2.29;100.00;102448.34;109228;1253;60971;-62
2024/01/29 08:04:37;;;;;;;8.30;5.10;;;;;;;2.45;100.00;102447.73;109216;1253;59949;-62
2024/01/29 08:07:05;;;;;;;7.60;4.60;;;;;;;2.52;100.00;102448.90;109209;1253;73467;-61
2024/01/29 08:09:32;;;;;;;8.20;5.00;;;;;;;2.60;100.00;102447.29;109215;1253;67994;-60
2024/01/29 08:12:00;;;;;;;7.70;4.90;;;;;;;2.73;100.00;102444.60;109171;1253;74928;-61
2024/01/29 08:14:28;;;;;;;8.40;4.90;;;;;;;2.83;100.00;102442.86;109183;1255;60287;-61
2024/01/29 08:16:56;;;;;;;9.40;6.30;;;;;;;3.09;100.00;102441.20;109185;1253;62800;-61
2024/01/29 08:19:24;;;;;;;9.30;5.40;;;;;;;3.41;100.00;102437.95;109199;1253;74738;-60
2024/01/29 08:21:54;;;;;;;8.90;4.60;;;;;;;3.80;100.00;102438.38;109267;1253;67305;-61
2024/01/29 08:24:23;;;;;;;7.80;4.90;;;;;;;4.28;100.00;102436.17;109179;1253;71417;-61
2024/01/29 08:26:50;;;;;;;7.60;4.70;;;;;;;4.80;100.00;102435.14;109175;1253;58995;-61
2024/01/29 08:29:18;;;;;;;7.30;5.00;;;;;;;5.35;100.00;102425.60;109150;1253;60269;-60
2024/01/29 08:31:46;;;;;;;7.50;4.60;;;;;;;5.78;100.00;102420.63;109186;1253;75767;-61
2024/01/29 08:34:13;;;;;;;6.40;4.30;;;;;;;6.14;100.00;102416.62;109169;1253;67217;-62
2024/01/29 08:36:41;;;;;;;7.00;3.50;;;;;;;6.44;100.00;102408.20;109197;1253;72753;-63
2024/01/29 08:39:09;;;;;;;6.50;4.50;;;;;;;6.65;100.00;102397.33;109150;1254;59041;-61
2024/01/29 08:41:37;;;;;;;5.60;3.50;;;;;;;6.78;100.00;102387.92;109200;1253;63381;-61
2024/01/29 08:44:06;;;;;;;7.70;4.70;;;;;;;6.94;100.00;102383.36;109269;1253;73367;-61
2024/01/29 08:46:33;;;;;;;8.50;4.00;;;;;;;7.04;100.00;102375.74;109171;1253;69712;-61
2024/01/29 08:49:01;;;;;;;9.60;4.90;;;;;;;7.03;100.00;102361.67;109120;1255;75335;-61
2024/01/29 08:51:29;;;;;;;11.80;5.90;;;;;;;6.97;100.00;102354.64;109186;1253;58960;-61
2024/01/29 08:53:57;;;;;;;6.60;3.70;;;;;;;7.12;100.00;102350.27;109231;1253;59322;-60
2024/01/29 08:56:24;;;;;;;6.10;3.30;;;;;;;7.36;100.00;102345.65;109205;1253;74810;-61
2024/01/29 08:58:52;;;;;;;7.20;4.20;;;;;;;7.31;100.00;102336.33;109228;1253;68971;-64
2024/01/29 09:01:20;;;;;;;7.00;3.60;;;;;;;7.30;100.00;102335.48;109144;1253;73617;-61
2024/01/29 09:03:48;;;;;;;9.60;4.00;;;;;;;7.39;100.00;102338.34;109173;1253;60453;-62
2024/01/29 09:06:16;;;;;;;5.80;3.20;;;;;;;7.55;100.00;102334.23;109218;1253;62134;-61
2024/01/29 09:08:44;;;;;;;7.20;3.90;;;;;;;7.61;100.00;102331.58;109294;1253;74194;-61
2024/01/29 09:11:11;;;;;;;6.50;3.80;;;;;;;7.76;100.00;102330.61;109167;1253;65675;-65
2024/01/29 09:13:39;;;;;;;7.60;3.20;;;;;;;7.96;100.00;102331.89;109309;1254;74829;-61
2024/01/29 09:16:07;;;;;;;4.90;2.60;;;;;;;8.05;100.00;102334.83;109176;1253;62178;-60
2024/01/29 09:18:35;;;;;;;4.50;2.70;;;;;;;8.01;100.00;102337.39;109140;1253;61273;-60
2024/01/29 09:21:03;;;;;;;6.20;3.40;;;;;;;7.89;100.00;102341.89;109295;1253;76764;-61
2024/01/29 09:23:30;;;;;;;7.20;3.70;;;;;;;7.82;100.00;102342.65;109217;1253;69314;-61
2024/01/29 09:25:58;;;;;;;5.80;2.80;;;;;;;7.87;100.00;102340.84;109144;1253;74185;-60
2024/01/29 09:28:26;;;;;;;5.40;3.30;;;;;;;7.89;100.00;102345.42;109169;1253;61179;-61
2024/01/29 09:30:54;;;;;;;9.10;4.60;;;;;;;7.86;100.00;102345.41;109263;1253;60033;-60
2024/01/29 09:33:21;;;;;;;5.10;3.20;;;;;;;8.05;100.00;102338.77;109213;1253;74695;-60
2024/01/29 09:35:49;;;;;;;5.90;3.40;;;;;;;8.21;100.00;102345.05;109193;1253;68844;-64
2024/01/29 09:38:17;;;;;;;5.80;3.60;;;;;;;8.10;100.00;102342.73;109177;1253;71455;-60
2024/01/29 09:40:45;;;;;;;6.10;3.70;;;;;;;7.67;100.00;102343.18;109163;1253;59085;-60
2024/01/29 09:43:13;;;;;;;8.20;3.30;;;;;;;7.37;100.00;102343.49;109238;1253;62402;-61
2024/01/29 09:45:41;;;;;;;6.20;3.20;;;;;;;7.39;100.00;102346.64;109084;1253;73717;-62
2024/01/29 09:48:11;;;;;;;6.20;3.50;;;;;;;7.51;100.00;102347.69;109010;1253;69593;-60
2024/01/29 09:50:39;;;;;;;7.70;4.40;;;;;;;7.33;100.00;102346.86;109055;1253;75314;-61
2024/01/29 09:53:07;;;;;;;5.80;3.80;;;;;;;7.12;100.00;102345.48;109059;1253;61402;-59
2024/01/29 09:55:35;;;;;;;9.90;5.90;;;;;;;7.07;100.00;102346.17;109279;1253;60813;-60
2024/01/29 09:58:03;;;;;;;7.80;5.10;;;;;;;7.15;100.00;102344.91;109227;1254;74772;-66
2024/01/29 10:00:31;;;;;;;7.30;4.20;;;;;;;7.24;100.00;102339.20;109222;1253;66011;-59
2024/01/29 10:03:04;;;;;;;7.60;4.50;;;;;;;7.28;100.00;102335.28;109320;1253;71325;-60
2024/01/29 10:05:37;;;;;;;6.90;3.80;;;;;;;7.28;100.00;102337.04;109219;1253;60310;-60
2024/01/29 10:08:04;;;;;;;6.90;4.10;;;;;;;7.28;100.00;102340.52;109035;1253;63079;-58
2024/01/29 10:10:33;;;;;;;6.60;3.30;;;;;;;7.29;100.00;102338.88;109183;1253;76620;-58
2024/01/29 10:13:03;;;;;;;5.50;3.30;;;;;;;7.25;100.00;102343.50;109016;1253;66983;-57
2024/01/29 10:15:31;;;;;;;11.00;4.40;;;;;;;7.22;100.00;102340.93;109234;1253;71144;-61
2024/01/29 10:17:59;;;;;;;7.70;4.40;;;;;;;7.24;100.00;102339.89;109101;1253;60336;-63
2024/01/29 10:20:27;;;;;;;8.10;3.90;;;;;;;7.13;100.00;102341.77;109252;1253;60924;-59
2024/01/29 10:22:59;;;;;;;6.70;3.90;;;;;;;6.91;100.00;102342.45;109242;1253;78091;-60
2024/01/29 10:25:32;;;;;;;7.70;4.20;;;;;;;6.84;100.00;102344.16;109238;1253;67718;-60
2024/01/29 10:28:12;;;;;;;6.90;4.40;;;;;;;6.81;100.00;102341.42;109166;1254;74236;-59
2024/01/29 10:30:40;;;;;;;7.50;4.30;;;;;;;6.77;100.00;102339.09;109185;1254;61367;-60
2024/01/29 10:33:09;;;;;;;6.60;4.20;;;;;;;6.78;100.00;102334.86;109241;1253;61460;-59
2024/01/29 10:35:37;;;;;;;8.00;5.40;;;;;;;6.87;100.00;102336.69;109208;1253;78186;-65
2024/01/29 10:38:06;;;;;;;8.20;5.50;;;;;;;7.06;100.00;102335.34;109202;1253;69190;-59
2024/01/29 10:40:34;;;;;;;9.10;5.30;;;;;;;7.36;100.00;102336.27;109177;1253;74750;-60
2024/01/29 10:43:03;;;;;;;7.40;3.90;;;;;;;7.50;100.00;102334.40;109182;1253;60919;-58
2024/01/29 10:45:31;;;;;;;7.10;4.20;;;;;;;7.45;100.00;102336.70;109167;1253;62514;-58
2024/01/29 10:48:06;;;;;;;8.60;4.90;;;;;;;7.37;100.00;102336.08;109011;1253;77030;-59
2024/01/29 10:50:34;;;;;;;10.70;6.30;;;;;;;7.41;100.00;102337.33;109100;1253;68388;-58
2024/01/29 10:53:03;;;;;;;8.20;5.00;;;;;;;7.51;100.00;102337.25;109185;1255;73729;-58
2024/01/29 10:55:31;;;;;;;9.40;5.80;;;;;;;7.50;100.00;102333.55;109071;1253;61381;-58
2024/01/29 10:58:01;;;;;;;9.40;5.30;;;;;;;7.46;100.00;102334.33;108996;1253;61810;-59
2024/01/29 11:00:29;;;;;;;11.00;7.30;;;;;;;7.44;100.00;102335.02;109072;1253;75642;-59
2024/01/29 11:02:57;;;;;;;9.50;6.30;;;;;;;7.60;100.00;102340.23;109042;1253;68345;-58
2024/01/29 11:05:25;;;;;;;10.60;6.00;;;;;;;7.82;100.00;102335.67;109169;1253;74753;-58
2024/01/29 11:07:53;;;;;;;10.50;6.20;;;;;;;7.98;100.00;102332.72;109117;1253;61248;-59
2024/01/29 11:10:23;;;;;;;8.90;5.70;;;;;;;8.05;100.00;102327.91;109075;1253;61274;-58